Time;durP1;ratioP1;P1;durP2;ratioP2;P2;SDS_P1;SDS_P2;PMS_P1;PMS_P2;Temp;Humidity;BMP_temperature;BMP_pressure;BME280_temperature;BME280_humidity;BME280_pressure;Samples;Min_cycle;Max_cycle;Signal;HPM_P1;HPM_P2
2022/12/11 00:02:07;;;;;;;4.60;1.27;;;;;;;;;;5018719;28;20367;-88
2022/12/11 00:04:33;;;;;;;3.13;1.00;;;;;;;;;;5033638;28;20320;-87
2022/12/11 00:06:59;;;;;;;2.22;1.20;;;;;;;;;;5038365;28;20025;-87
2022/12/11 00:09:25;;;;;;;1.63;1.20;;;;;;;;;;5021040;28;20115;-87
2022/12/11 00:11:51;;;;;;;7.70;3.05;;;;;;;;;;5020681;28;20021;-87
2022/12/11 00:14:17;;;;;;;4.70;2.40;;;;;;;;;;5020662;28;20124;-87
2022/12/11 00:19:47;;;;;;;5.93;1.73;;;;;;;;;;5037909;28;20032;-88
2022/12/11 00:22:13;;;;;;;5.10;1.75;;;;;;;;;;5038275;28;20109;-87
2022/12/11 00:24:39;;;;;;;3.80;2.10;;;;;;;;;;5020513;28;20053;-87
2022/12/11 00:27:05;;;;;;;7.95;3.58;;;;;;;;;;5037374;28;20021;-87
2022/12/11 00:29:31;;;;;;;12.45;5.10;;;;;;;;;;5038083;28;20124;-87
2022/12/11 00:31:57;;;;;;;3.75;1.92;;;;;;;;;;5037642;28;20474;-88
2022/12/11 00:34:23;;;;;;;4.80;1.42;;;;;;;;;;5020432;28;20041;-87
2022/12/11 00:36:49;;;;;;;2.20;1.23;;;;;;;;;;5019927;28;20072;-87
2022/12/11 00:39:15;;;;;;;2.47;1.60;;;;;;;;;;5037913;28;20025;-89
2022/12/11 00:41:41;;;;;;;3.38;1.95;;;;;;;;;;5020410;28;20040;-87
2022/12/11 00:44:07;;;;;;;4.07;2.15;;;;;;;;;;5020281;28;20032;-87
2022/12/11 00:46:33;;;;;;;4.68;2.08;;;;;;;;;;5037849;28;20026;-88
2022/12/11 00:48:59;;;;;;;4.15;1.70;;;;;;;;;;5020111;28;20029;-88
2022/12/11 00:51:25;;;;;;;4.25;1.95;;;;;;;;;;5019385;28;20041;-88
2022/12/11 00:53:51;;;;;;;3.75;2.00;;;;;;;;;;5020124;28;20036;-87
2022/12/11 00:56:19;;;;;;;4.88;2.22;;;;;;;;;;5037722;28;20033;-87
2022/12/11 00:58:46;;;;;;;5.15;1.85;;;;;;;;;;5020164;28;20395;-87
2022/12/11 01:01:14;;;;;;;4.57;1.67;;;;;;;;;;5031914;28;20072;-88
2022/12/11 01:03:41;;;;;;;4.15;1.85;;;;;;;;;;5000356;28;20409;-88
2022/12/11 01:06:07;;;;;;;4.18;1.50;;;;;;;;;;5017975;28;20046;-87
2022/12/11 01:08:33;;;;;;;6.32;2.28;;;;;;;;;;5003994;28;20030;-87
2022/12/11 01:11:07;;;;;;;3.95;2.00;;;;;;;;;;5021986;28;20396;-87
2022/12/11 01:13:33;;;;;;;4.50;1.85;;;;;;;;;;5021803;28;20108;-88
2022/12/11 01:15:59;;;;;;;2.15;1.40;;;;;;;;;;5021608;28;20022;-87
2022/12/11 01:18:25;;;;;;;2.20;1.20;;;;;;;;;;5004228;28;20111;-88
2022/12/11 01:20:52;;;;;;;3.20;1.33;;;;;;;;;;5021759;28;20034;-88
2022/12/11 01:23:18;;;;;;;4.05;1.30;;;;;;;;;;5004224;28;20022;-88
2022/12/11 01:25:44;;;;;;;3.88;1.50;;;;;;;;;;5021274;28;20128;-88
2022/12/11 01:28:10;;;;;;;3.47;1.73;;;;;;;;;;5036524;28;20056;-88
2022/12/11 01:30:36;;;;;;;2.72;1.23;;;;;;;;;;5040719;28;20029;-88
2022/12/11 01:33:03;;;;;;;5.72;2.00;;;;;;;;;;5041207;28;20026;-88
2022/12/11 01:35:29;;;;;;;9.13;2.30;;;;;;;;;;5041001;28;20030;-87
2022/12/11 01:37:55;;;;;;;9.98;4.82;;;;;;;;;;5041083;28;20032;-89
2022/12/11 01:40:22;;;;;;;10.68;5.97;;;;;;;;;;5040777;28;20025;-88
2022/12/11 01:42:48;;;;;;;13.48;5.88;;;;;;;;;;5023458;28;20025;-88
2022/12/11 01:45:35;;;;;;;7.35;4.30;;;;;;;;;;5040532;28;20033;-88
2022/12/11 01:48:04;;;;;;;7.47;4.90;;;;;;;;;;5040933;28;20021;-88
2022/12/11 01:50:33;;;;;;;7.50;4.55;;;;;;;;;;5040386;28;20025;-89
2022/12/11 01:52:59;;;;;;;6.28;3.90;;;;;;;;;;5040522;28;20032;-88
2022/12/11 01:55:25;;;;;;;11.40;4.80;;;;;;;;;;5040837;28;20029;-88
2022/12/11 01:57:51;;;;;;;7.20;4.57;;;;;;;;;;5023242;28;20108;-86
2022/12/11 02:00:18;;;;;;;6.65;4.03;;;;;;;;;;5022958;28;20028;-87
2022/12/11 02:02:44;;;;;;;9.57;4.45;;;;;;;;;;5003230;28;20025;-87
2022/12/11 02:05:10;;;;;;;7.63;4.50;;;;;;;;;;5020523;28;20033;-86
2022/12/11 02:07:43;;;;;;;5.72;4.13;;;;;;;;;;5003031;28;20070;-88
2022/12/11 02:10:11;;;;;;;5.15;3.75;;;;;;;;;;5004862;28;20030;-89
2022/12/11 02:12:43;;;;;;;7.32;3.90;;;;;;;;;;5038854;28;20371;-88
2022/12/11 02:15:17;;;;;;;9.82;4.78;;;;;;;;;;5040580;28;20029;-89
2022/12/11 02:17:46;;;;;;;6.63;4.50;;;;;;;;;;5022751;28;20041;-89
2022/12/11 02:20:31;;;;;;;8.13;4.97;;;;;;;;;;5022294;28;20339;-88
2022/12/11 02:23:02;;;;;;;8.25;4.82;;;;;;;;;;5040357;28;20049;-88
2022/12/11 02:25:47;;;;;;;10.82;6.03;;;;;;;;;;5014059;28;20064;-88
2022/12/11 02:28:17;;;;;;;8.40;5.10;;;;;;;;;;5002944;28;20022;-88
2022/12/11 02:30:45;;;;;;;8.98;5.32;;;;;;;;;;5027746;28;20036;-88
2022/12/11 02:33:12;;;;;;;8.52;5.50;;;;;;;;;;5022735;28;20076;-88
2022/12/11 02:35:42;;;;;;;12.10;6.88;;;;;;;;;;5040262;28;20113;-89
2022/12/11 02:38:11;;;;;;;10.30;6.85;;;;;;;;;;5039713;28;20025;-89
2022/12/11 02:40:39;;;;;;;11.50;6.43;;;;;;;;;;5039623;28;20320;-89
2022/12/11 02:43:07;;;;;;;8.25;6.25;;;;;;;;;;5039931;28;20025;-88
2022/12/11 02:45:34;;;;;;;9.60;6.40;;;;;;;;;;5039521;28;20030;-88
2022/12/11 02:48:02;;;;;;;9.05;6.40;;;;;;;;;;5022210;28;20022;-88
2022/12/11 02:50:29;;;;;;;12.40;8.13;;;;;;;;;;5026340;28;20100;-89
2022/12/11 02:52:57;;;;;;;11.23;6.70;;;;;;;;;;5002182;28;20046;-88
2022/12/11 02:55:24;;;;;;;13.68;8.30;;;;;;;;;;5019952;28;20117;-88
2022/12/11 02:57:59;;;;;;;10.50;6.93;;;;;;;;;;5019611;28;20026;-88
2022/12/11 03:00:25;;;;;;;13.40;7.28;;;;;;;;;;5019654;28;20026;-88
2022/12/11 03:02:51;;;;;;;11.55;7.55;;;;;;;;;;5019701;28;20105;-88
2022/12/11 03:05:17;;;;;;;12.32;7.25;;;;;;;;;;5019435;28;20026;-88
2022/12/11 03:07:44;;;;;;;11.35;7.25;;;;;;;;;;5014439;28;20037;-89
2022/12/11 03:10:13;;;;;;;11.32;7.30;;;;;;;;;;5022484;28;20026;-88
2022/12/11 03:12:41;;;;;;;11.95;6.85;;;;;;;;;;5002245;28;20109;-90
2022/12/11 03:15:09;;;;;;;10.75;7.93;;;;;;;;;;5019288;28;20125;-89
2022/12/11 03:17:38;;;;;;;10.90;7.18;;;;;;;;;;5019560;28;20369;-88
2022/12/11 03:20:23;;;;;;;10.52;6.45;;;;;;;;;;5002110;28;20034;-88
2022/12/11 03:23:09;;;;;;;10.55;7.95;;;;;;;;;;5001772;28;20050;-89
2022/12/11 03:25:55;;;;;;;13.60;8.85;;;;;;;;;;5019350;28;20022;-89
2022/12/11 03:28:25;;;;;;;9.85;6.22;;;;;;;;;;5018905;28;20431;-89
2022/12/11 03:30:53;;;;;;;10.38;6.60;;;;;;;;;;5018041;28;20025;-89
2022/12/11 03:36:24;;;;;;;9.57;6.75;;;;;;;;;;5019262;28;20045;-89
2022/12/11 03:38:52;;;;;;;10.10;6.72;;;;;;;;;;5019179;28;20025;-88
2022/12/11 03:41:20;;;;;;;10.30;6.63;;;;;;;;;;5001450;28;20022;-88
2022/12/11 03:43:48;;;;;;;10.10;6.32;;;;;;;;;;5018831;28;20048;-89
2022/12/11 03:46:15;;;;;;;11.00;6.18;;;;;;;;;;5018705;28;20045;-88
2022/12/11 03:51:46;;;;;;;9.85;6.53;;;;;;;;;;5038470;28;20454;-88
2022/12/11 03:54:12;;;;;;;10.32;6.97;;;;;;;;;;5038427;28;20037;-88
2022/12/11 03:56:40;;;;;;;10.85;7.38;;;;;;;;;;5038218;28;20032;-89
2022/12/11 03:59:06;;;;;;;11.35;8.10;;;;;;;;;;5020820;28;20034;-89
2022/12/11 04:01:56;;;;;;;10.35;7.13;;;;;;;;;;5020837;28;20371;-88
2022/12/11 04:04:22;;;;;;;11.23;7.63;;;;;;;;;;5038127;28;20021;-89
2022/12/11 04:06:48;;;;;;;10.15;7.00;;;;;;;;;;5038134;28;20026;-88
2022/12/11 04:09:14;;;;;;;9.85;6.38;;;;;;;;;;5019003;28;20036;-89
2022/12/11 04:11:41;;;;;;;9.43;6.30;;;;;;;;;;5020809;28;20045;-89
2022/12/11 04:16:58;;;;;;;10.70;6.35;;;;;;;;;;5038228;28;20036;-89
2022/12/11 04:24:39;;;;;;;8.30;5.88;;;;;;;;;;5037893;28;20037;-89
2022/12/11 04:27:05;;;;;;;9.35;6.88;;;;;;;;;;5037767;28;20021;-89
2022/12/11 04:29:31;;;;;;;9.43;6.07;;;;;;;;;;5020469;28;20021;-89
2022/12/11 04:38:04;;;;;;;13.60;7.15;;;;;;;;;;5037990;28;20059;-87
2022/12/11 04:40:30;;;;;;;9.55;6.82;;;;;;;;;;5020603;28;20040;-89
2022/12/11 04:42:56;;;;;;;9.10;6.78;;;;;;;;;;5037626;28;20025;-89
2022/12/11 04:45:22;;;;;;;10.48;6.90;;;;;;;;;;5037780;28;20067;-89
2022/12/11 04:50:52;;;;;;;11.05;7.10;;;;;;;;;;5037751;28;20092;-90
2022/12/11 04:53:18;;;;;;;11.15;6.72;;;;;;;;;;5020243;28;20319;-89
2022/12/11 04:55:44;;;;;;;12.15;6.70;;;;;;;;;;5020400;28;20041;-89
2022/12/11 04:58:10;;;;;;;9.57;6.97;;;;;;;;;;5020198;28;20072;-89
2022/12/11 05:00:36;;;;;;;9.95;7.53;;;;;;;;;;5037466;28;20030;-89
2022/12/11 05:03:02;;;;;;;10.13;6.90;;;;;;;;;;5037732;28;20030;-88
2022/12/11 05:05:28;;;;;;;11.63;7.60;;;;;;;;;;5037031;28;20029;-88
2022/12/11 05:07:54;;;;;;;11.23;7.45;;;;;;;;;;5034407;28;20042;-87
2022/12/11 05:10:20;;;;;;;9.98;6.22;;;;;;;;;;5017513;28;20322;-87
2022/12/11 05:12:46;;;;;;;12.55;7.70;;;;;;;;;;5017470;28;20026;-88
2022/12/11 05:15:12;;;;;;;10.18;6.93;;;;;;;;;;5017834;28;20152;-88
2022/12/11 05:17:57;;;;;;;10.95;7.30;;;;;;;;;;5000300;28;20416;-88
2022/12/11 05:20:23;;;;;;;10.38;6.55;;;;;;;;;;5035161;28;20056;-88
2022/12/11 05:22:49;;;;;;;10.48;7.13;;;;;;;;;;5020036;28;20025;-88
2022/12/11 05:25:15;;;;;;;11.30;7.15;;;;;;;;;;5037415;28;20030;-89
2022/12/11 05:27:41;;;;;;;13.18;8.23;;;;;;;;;;5019586;28;20044;-88
2022/12/11 05:30:08;;;;;;;13.10;7.50;;;;;;;;;;5019926;28;20053;-89
2022/12/11 05:35:38;;;;;;;12.77;7.75;;;;;;;;;;5037053;28;20033;-88
2022/12/11 05:38:04;;;;;;;11.63;8.35;;;;;;;;;;5036734;28;20033;-88
2022/12/11 05:40:30;;;;;;;11.20;8.30;;;;;;;;;;5036979;28;20032;-88
2022/12/11 05:42:56;;;;;;;13.32;8.70;;;;;;;;;;5037284;28;20025;-88
2022/12/11 05:45:22;;;;;;;13.20;9.07;;;;;;;;;;5019877;28;20037;-89
2022/12/11 05:47:48;;;;;;;12.27;8.60;;;;;;;;;;5037355;28;20018;-89
2022/12/11 05:50:14;;;;;;;15.60;8.85;;;;;;;;;;5036971;28;20040;-89
2022/12/11 05:52:40;;;;;;;12.50;9.25;;;;;;;;;;5036938;28;20411;-89
2022/12/11 05:55:08;;;;;;;13.73;9.70;;;;;;;;;;5039823;28;20025;-88
2022/12/11 05:57:34;;;;;;;14.40;9.80;;;;;;;;;;5023291;28;20025;-88
2022/12/11 06:00:00;;;;;;;15.63;9.30;;;;;;;;;;5040842;28;20083;-89
2022/12/11 06:02:26;;;;;;;13.02;9.50;;;;;;;;;;5022915;28;20030;-89
2022/12/11 06:04:52;;;;;;;16.50;9.80;;;;;;;;;;5024225;28;20030;-88
2022/12/11 06:07:18;;;;;;;13.40;9.40;;;;;;;;;;5020753;28;20064;-89
2022/12/11 06:09:44;;;;;;;15.85;10.65;;;;;;;;;;5003278;28;20128;-89
2022/12/11 06:12:10;;;;;;;16.08;10.50;;;;;;;;;;5020791;28;20026;-89
2022/12/11 06:14:36;;;;;;;23.13;14.07;;;;;;;;;;5007820;28;20028;-89
2022/12/11 06:17:02;;;;;;;34.00;16.35;;;;;;;;;;5003167;28;20034;-89
2022/12/11 06:19:28;;;;;;;21.38;13.90;;;;;;;;;;5003251;28;20149;-90
2022/12/11 06:21:54;;;;;;;26.08;13.82;;;;;;;;;;5020531;28;20109;-90
2022/12/11 06:24:20;;;;;;;18.10;11.57;;;;;;;;;;5021006;28;20087;-89
2022/12/11 06:26:46;;;;;;;15.48;10.60;;;;;;;;;;5022710;28;20031;-89
2022/12/11 06:29:12;;;;;;;16.73;10.63;;;;;;;;;;5022612;28;20060;-89
2022/12/11 06:31:38;;;;;;;15.63;10.63;;;;;;;;;;5022618;28;20021;-89
2022/12/11 06:34:04;;;;;;;15.20;10.27;;;;;;;;;;5022632;28;20044;-89
2022/12/11 06:36:30;;;;;;;12.88;9.63;;;;;;;;;;5039955;28;20029;-89
2022/12/11 06:38:56;;;;;;;15.63;10.35;;;;;;;;;;5039863;28;20029;-89
2022/12/11 06:41:22;;;;;;;13.43;9.45;;;;;;;;;;5028288;28;20113;-89
2022/12/11 06:43:49;;;;;;;14.52;9.50;;;;;;;;;;5002699;28;20022;-89
2022/12/11 06:46:16;;;;;;;14.85;10.20;;;;;;;;;;5020326;28;20032;-90
2022/12/11 06:48:43;;;;;;;18.05;10.57;;;;;;;;;;5020072;28;20022;-90
2022/12/11 06:51:11;;;;;;;15.45;10.27;;;;;;;;;;5019575;28;20084;-89
2022/12/11 06:53:37;;;;;;;15.20;10.38;;;;;;;;;;5002595;28;20037;-89
2022/12/11 06:56:05;;;;;;;15.63;10.65;;;;;;;;;;5029485;28;20163;-89
2022/12/11 06:58:31;;;;;;;15.88;10.18;;;;;;;;;;5039746;28;20022;-88
2022/12/11 07:00:57;;;;;;;16.80;10.50;;;;;;;;;;5039463;28;20450;-88
2022/12/11 07:06:27;;;;;;;22.73;12.80;;;;;;;;;;5039259;28;20060;-90
2022/12/11 07:08:54;;;;;;;24.92;12.55;;;;;;;;;;5021756;28;20091;-88
2022/12/11 07:11:20;;;;;;;17.75;10.98;;;;;;;;;;5039607;28;20025;-90
2022/12/11 07:13:47;;;;;;;15.40;10.57;;;;;;;;;;5021783;28;20021;-88
2022/12/11 07:16:14;;;;;;;14.95;9.88;;;;;;;;;;5039081;28;20435;-88
2022/12/11 07:19:00;;;;;;;29.60;14.05;;;;;;;;;;5037085;28;20088;-87
2022/12/11 07:21:26;;;;;;;42.10;16.80;;;;;;;;;;5023518;28;20025;-88
2022/12/11 07:23:52;;;;;;;24.45;14.55;;;;;;;;;;5019955;28;20336;-88
2022/12/11 07:26:19;;;;;;;18.85;11.43;;;;;;;;;;5019120;28;20014;-88
2022/12/11 07:28:46;;;;;;;20.10;11.70;;;;;;;;;;5022572;28;20026;-87
2022/12/11 07:31:14;;;;;;;19.10;12.45;;;;;;;;;;5019420;28;20021;-87
2022/12/11 07:33:41;;;;;;;26.58;15.35;;;;;;;;;;5019167;28;20022;-88
2022/12/11 07:36:08;;;;;;;42.33;19.50;;;;;;;;;;5001680;28;20064;-89
2022/12/11 07:38:37;;;;;;;51.97;25.48;;;;;;;;;;5019441;28;20022;-87
2022/12/11 07:41:04;;;;;;;101.97;42.20;;;;;;;;;;5038777;28;20041;-88
2022/12/11 07:43:31;;;;;;;49.67;22.83;;;;;;;;;;5038332;28;20370;-88
2022/12/11 07:46:07;;;;;;;28.42;14.07;;;;;;;;;;5038420;28;20403;-88
2022/12/11 07:48:36;;;;;;;25.88;14.10;;;;;;;;;;5026958;28;20069;-89
2022/12/11 07:51:16;;;;;;;23.88;13.77;;;;;;;;;;5018612;28;20042;-88
2022/12/11 07:53:42;;;;;;;26.52;14.05;;;;;;;;;;5018663;28;20408;-88
2022/12/11 07:56:09;;;;;;;30.13;16.23;;;;;;;;;;5018921;28;20030;-88
2022/12/11 07:58:37;;;;;;;30.30;17.10;;;;;;;;;;5001289;28;20026;-88
2022/12/11 08:01:03;;;;;;;24.77;14.65;;;;;;;;;;5019026;28;20104;-89
2022/12/11 08:03:49;;;;;;;24.77;14.65;;;;;;;;;;5034421;28;20030;-89
2022/12/11 08:06:15;;;;;;;41.47;18.38;;;;;;;;;;5007252;28;20030;-88
2022/12/11 08:08:42;;;;;;;57.65;23.95;;;;;;;;;;5030352;28;20025;-87
2022/12/11 08:11:10;;;;;;;43.33;21.33;;;;;;;;;;5037935;28;20289;-88
2022/12/11 08:13:36;;;;;;;51.05;24.00;;;;;;;;;;5010613;28;20061;-94
2022/12/11 08:16:09;;;;;;;26.98;14.77;;;;;;;;;;5039916;28;20053;-96
2022/12/11 08:18:36;;;;;;;34.33;17.33;;;;;;;;;;5033784;28;20037;-96
2022/12/11 08:21:06;;;;;;;59.53;23.30;;;;;;;;;;5031036;28;20029;-91
2022/12/11 08:23:33;;;;;;;48.83;22.42;;;;;;;;;;5006681;28;20080;-96
2022/12/11 08:26:02;;;;;;;51.13;22.15;;;;;;;;;;5013861;28;20033;-90
2022/12/11 08:31:21;;;;;;;47.72;21.27;;;;;;;;;;5990300;22;20046;-92
2022/12/11 08:39:39;;;;;;;40.67;21.13;;;;;;;;;;5093369;22;20144;-95
2022/12/11 08:42:25;;;;;;;82.63;35.83;;;;;;;;;;4999067;28;20442;-95
2022/12/11 08:44:52;;;;;;;40.00;21.10;;;;;;;;;;4986090;28;20043;-94
2022/12/11 08:47:18;;;;;;;28.90;16.35;;;;;;;;;;4963224;28;20066;-94
2022/12/11 08:55:49;;;;;;;;;;;;;;;;;;4997622;28;20037;-94
2022/12/11 08:58:16;;;;;;;50.33;21.85;;;;;;;;;;5000271;28;20292;-96
2022/12/11 09:00:43;;;;;;;35.53;17.35;;;;;;;;;;4991104;28;20043;-95
2022/12/11 09:06:16;;;;;;;54.42;24.10;;;;;;;;;;5001711;28;20178;-93
2022/12/11 09:08:52;;;;;;;43.88;20.55;;;;;;;;;;4999277;28;20031;-96
2022/12/11 09:11:19;;;;;;;57.88;24.92;;;;;;;;;;5103836;22;20072;-95
2022/12/11 09:13:47;;;;;;;43.95;23.48;;;;;;;;;;5100884;22;20018;-96
2022/12/11 09:16:15;;;;;;;47.30;25.52;;;;;;;;;;5000969;28;20118;-94
2022/12/11 09:18:41;;;;;;;59.50;23.60;;;;;;;;;;4978914;28;20031;-96
2022/12/11 09:21:08;;;;;;;63.33;26.25;;;;;;;;;;4978650;28;20425;-95
2022/12/11 09:23:34;;;;;;;53.13;22.67;;;;;;;;;;4961718;28;20030;-95
2022/12/11 09:26:04;;;;;;;36.25;19.52;;;;;;;;;;4975143;28;20072;-95
2022/12/11 09:28:30;;;;;;;41.72;23.85;;;;;;;;;;4997813;28;20027;-91
2022/12/11 09:30:56;;;;;;;41.75;23.58;;;;;;;;;;4984447;28;20030;-93
2022/12/11 09:36:26;;;;;;;39.58;23.88;;;;;;;;;;5001699;28;20118;-95
2022/12/11 09:38:53;;;;;;;46.67;26.23;;;;;;;;;;5002309;28;20061;-95
2022/12/11 09:41:22;;;;;;;49.55;26.40;;;;;;;;;;5001750;28;20309;-93
2022/12/11 09:44:00;;;;;;;41.42;20.92;;;;;;;;;;5002706;28;20033;-95
2022/12/11 09:46:26;;;;;;;40.67;21.75;;;;;;;;;;5001882;28;20320;-95
2022/12/11 09:52:05;;;;;;;69.65;37.90;;;;;;;;;;4992138;28;20110;-96
2022/12/11 09:54:31;;;;;;;65.90;32.70;;;;;;;;;;4978862;28;20126;-96
2022/12/11 09:56:57;;;;;;;59.55;31.10;;;;;;;;;;4970352;28;20057;-96
2022/12/11 09:59:44;;;;;;;58.35;27.13;;;;;;;;;;4988804;28;20053;-96
2022/12/11 10:02:33;;;;;;;48.50;25.83;;;;;;;;;;4990852;28;20069;-96
2022/12/11 10:08:16;;;;;;;55.97;22.88;;;;;;;;;;4974082;29;20322;-96
2022/12/11 10:10:44;;;;;;;58.58;28.85;;;;;;;;;;4969115;28;20030;-94
2022/12/11 10:13:17;;;;;;;51.50;23.83;;;;;;;;;;4978711;28;20039;-96
2022/12/11 10:15:50;;;;;;;58.13;27.65;;;;;;;;;;4969463;28;20107;-92
2022/12/11 10:18:36;;;;;;;58.00;30.45;;;;;;;;;;4969997;29;20028;-96
2022/12/11 10:21:03;;;;;;;58.05;28.38;;;;;;;;;;4967210;28;20036;-95
2022/12/11 10:23:34;;;;;;;42.15;21.98;;;;;;;;;;4946898;29;20043;-96
2022/12/11 10:26:06;;;;;;;35.03;19.10;;;;;;;;;;4961822;28;20119;-96
2022/12/11 10:28:32;;;;;;;30.98;17.85;;;;;;;;;;4962628;28;20023;-96
2022/12/11 10:31:05;;;;;;;34.85;19.13;;;;;;;;;;4972362;28;20037;-96
2022/12/11 10:33:48;;;;;;;31.15;16.40;;;;;;;;;;4970538;28;20477;-96
2022/12/11 10:36:17;;;;;;;27.77;16.23;;;;;;;;;;4970422;28;20059;-89
2022/12/11 10:38:44;;;;;;;36.40;21.17;;;;;;;;;;4964193;28;20418;-82
2022/12/11 10:41:16;;;;;;;34.03;19.15;;;;;;;;;;4992721;28;20038;-91
2022/12/11 10:43:44;;;;;;;40.95;22.05;;;;;;;;;;4961519;29;20027;-94
2022/12/11 10:46:21;;;;;;;29.90;17.50;;;;;;;;;;4961644;28;20043;-94
2022/12/11 10:48:55;;;;;;;31.17;17.00;;;;;;;;;;4960455;29;20320;-94
2022/12/11 10:51:23;;;;;;;29.83;18.08;;;;;;;;;;4961726;28;20028;-93
2022/12/11 10:53:51;;;;;;;29.42;16.35;;;;;;;;;;4944634;29;20070;-93
2022/12/11 10:56:24;;;;;;;26.85;15.73;;;;;;;;;;4961526;28;20024;-94
2022/12/11 10:58:50;;;;;;;29.80;17.05;;;;;;;;;;4961117;28;20023;-94
2022/12/11 11:01:18;;;;;;;48.50;25.23;;;;;;;;;;4961319;28;20078;-93
2022/12/11 11:04:00;;;;;;;61.75;32.63;;;;;;;;;;4961144;28;20118;-94
2022/12/11 11:06:26;;;;;;;63.37;32.80;;;;;;;;;;4961111;28;20414;-94
2022/12/11 11:08:54;;;;;;;66.25;31.67;;;;;;;;;;4960971;28;20110;-93
2022/12/11 11:11:28;;;;;;;80.80;36.75;;;;;;;;;;4960362;29;20019;-92
2022/12/11 11:14:04;;;;;;;68.07;31.83;;;;;;;;;;4960038;28;20028;-93
2022/12/11 11:16:30;;;;;;;59.13;28.17;;;;;;;;;;4961386;28;20062;-95
2022/12/11 11:18:57;;;;;;;60.70;30.38;;;;;;;;;;4961039;29;20030;-94
2022/12/11 11:21:25;;;;;;;62.42;30.08;;;;;;;;;;4961160;28;20019;-93
2022/12/11 11:23:52;;;;;;;73.15;29.70;;;;;;;;;;4961073;28;20406;-92
2022/12/11 11:26:19;;;;;;;64.43;27.60;;;;;;;;;;4959516;28;20047;-95
2022/12/11 11:28:53;;;;;;;71.30;32.88;;;;;;;;;;4960301;29;20035;-92
2022/12/11 11:31:19;;;;;;;61.58;33.03;;;;;;;;;;4960813;29;20058;-90
2022/12/11 11:33:56;;;;;;;34.63;20.27;;;;;;;;;;4960619;28;20055;-91
2022/12/11 11:36:42;;;;;;;31.35;16.67;;;;;;;;;;4960708;28;20031;-93
2022/12/11 11:39:16;;;;;;;27.17;16.00;;;;;;;;;;4960453;29;20058;-93
2022/12/11 11:41:55;;;;;;;29.35;16.33;;;;;;;;;;4960578;28;20103;-93
2022/12/11 11:44:30;;;;;;;30.23;15.18;;;;;;;;;;4959582;28;20114;-93
2022/12/11 11:46:59;;;;;;;55.22;25.70;;;;;;;;;;4960645;28;20038;-93
2022/12/11 11:49:41;;;;;;;49.10;21.65;;;;;;;;;;4960476;29;20019;-92
2022/12/11 11:52:13;;;;;;;46.90;21.35;;;;;;;;;;4958664;28;20027;-92
2022/12/11 11:54:43;;;;;;;40.17;19.27;;;;;;;;;;4960490;28;20031;-92
2022/12/11 11:57:22;;;;;;;38.50;19.30;;;;;;;;;;4959154;28;20331;-94
2022/12/11 11:59:55;;;;;;;39.15;19.95;;;;;;;;;;4960222;28;20031;-91
2022/12/11 12:02:21;;;;;;;32.75;17.30;;;;;;;;;;4960127;28;20090;-92
2022/12/11 12:04:50;;;;;;;30.50;16.50;;;;;;;;;;4960267;28;20048;-92
2022/12/11 12:07:19;;;;;;;32.72;17.10;;;;;;;;;;4959205;28;20114;-92
2022/12/11 12:09:45;;;;;;;25.58;14.98;;;;;;;;;;4960203;29;20027;-92
2022/12/11 12:12:11;;;;;;;27.65;14.98;;;;;;;;;;4960128;29;20023;-92
2022/12/11 12:14:46;;;;;;;27.27;15.05;;;;;;;;;;4958803;29;20398;-91
2022/12/11 12:17:15;;;;;;;27.48;14.55;;;;;;;;;;4958970;28;20046;-91
2022/12/11 12:20:00;;;;;;;29.40;15.45;;;;;;;;;;4959974;28;20118;-93
2022/12/11 12:22:44;;;;;;;31.90;16.25;;;;;;;;;;4959895;29;20034;-91
2022/12/11 12:25:18;;;;;;;37.50;19.65;;;;;;;;;;4958978;28;20027;-92
2022/12/11 12:27:47;;;;;;;34.92;18.90;;;;;;;;;;4959806;28;20103;-92
2022/12/11 12:30:17;;;;;;;35.33;18.65;;;;;;;;;;4958782;29;20125;-91
2022/12/11 12:32:43;;;;;;;35.13;19.35;;;;;;;;;;4959753;29;20027;-91
2022/12/11 12:35:30;;;;;;;40.85;22.50;;;;;;;;;;4959740;29;20034;-93
2022/12/11 12:37:56;;;;;;;48.33;25.90;;;;;;;;;;4958718;28;20028;-93
2022/12/11 12:40:35;;;;;;;72.18;33.10;;;;;;;;;;4958598;29;20035;-92
2022/12/11 12:43:20;;;;;;;74.10;31.00;;;;;;;;;;4959802;28;20027;-93
2022/12/11 12:45:53;;;;;;;103.72;36.72;;;;;;;;;;4958585;29;20325;-93
2022/12/11 12:48:19;;;;;;;73.10;27.63;;;;;;;;;;4958474;28;20043;-92
2022/12/11 12:50:47;;;;;;;77.30;26.33;;;;;;;;;;4958583;29;20615;-92
2022/12/11 12:53:17;;;;;;;75.13;29.05;;;;;;;;;;4959126;29;20027;-93
2022/12/11 12:55:43;;;;;;;74.07;27.85;;;;;;;;;;4959470;28;20035;-92
2022/12/11 12:58:29;;;;;;;39.85;18.10;;;;;;;;;;4977973;28;20026;-93
2022/12/11 13:01:16;;;;;;;49.33;20.90;;;;;;;;;;4992036;28;20039;-93
2022/12/11 13:04:02;;;;;;;67.65;23.52;;;;;;;;;;4924868;29;20035;-93
2022/12/11 13:06:44;;;;;;;73.97;26.27;;;;;;;;;;4942609;29;20039;-93
2022/12/11 13:09:10;;;;;;;;;;;;;;;;;;4926750;29;20062;-94
2022/12/11 13:11:36;;;;;;;47.13;19.45;;;;;;;;;;4942177;29;19907;-93
2022/12/11 13:14:02;;;;;;;70.50;24.48;;;;;;;;;;4942100;29;20027;-93
2022/12/11 13:16:37;;;;;;;65.72;25.35;;;;;;;;;;4942554;29;20032;-93
2022/12/11 13:19:04;;;;;;;45.22;19.88;;;;;;;;;;4926487;29;20028;-93
2022/12/11 13:21:32;;;;;;;93.15;32.53;;;;;;;;;;4926591;29;20055;-93
2022/12/11 13:24:21;;;;;;;46.47;23.45;;;;;;;;;;4926416;29;20032;-93
2022/12/11 13:26:48;;;;;;;31.50;17.70;;;;;;;;;;4923075;29;20040;-93
2022/12/11 13:29:34;;;;;;;36.03;19.20;;;;;;;;;;4922786;29;20080;-90
2022/12/11 13:32:20;;;;;;;34.72;17.55;;;;;;;;;;4923201;29;20044;-93
2022/12/11 13:34:52;;;;;;;30.88;18.35;;;;;;;;;;4922442;29;20040;-92
2022/12/11 13:37:26;;;;;;;32.72;17.83;;;;;;;;;;4906888;29;20071;-93
2022/12/11 13:39:52;;;;;;;34.75;20.73;;;;;;;;;;4927958;29;20036;-92
2022/12/11 13:42:25;;;;;;;49.90;26.58;;;;;;;;;;4960810;28;20035;-94
2022/12/11 13:44:51;;;;;;;;;;;;;;;;;;4961340;28;20050;-92
2022/12/11 13:47:18;;;;;;;53.90;24.35;;;;;;;;;;4945143;28;19914;-93
2022/12/11 13:49:45;;;;;;;55.88;22.52;;;;;;;;;;4945073;29;20023;-93
2022/12/11 13:52:17;;;;;;;80.03;27.73;;;;;;;;;;4960931;28;20027;-92
2022/12/11 13:54:47;;;;;;;98.80;33.45;;;;;;;;;;4960965;28;20027;-91
2022/12/11 13:57:16;;;;;;;71.32;28.10;;;;;;;;;;4960932;29;20042;-91
2022/12/11 13:59:43;;;;;;;76.50;30.15;;;;;;;;;;4960890;28;20027;-94
2022/12/11 14:02:19;;;;;;;50.20;21.92;;;;;;;;;;4944506;28;20070;-92
2022/12/11 14:04:45;;;;;;;71.95;27.70;;;;;;;;;;4996661;28;20050;-93
2022/12/11 14:07:12;;;;;;;61.72;23.38;;;;;;;;;;5000135;28;20022;-93
2022/12/11 14:09:45;;;;;;;48.97;22.55;;;;;;;;;;4999913;28;20034;-94
2022/12/11 14:12:18;;;;;;;34.80;18.52;;;;;;;;;;5001070;28;20094;-91
2022/12/11 14:14:55;;;;;;;49.00;26.40;;;;;;;;;;4998789;28;20463;-93
2022/12/11 14:17:26;;;;;;;35.58;20.42;;;;;;;;;;5001321;28;20038;-94
2022/12/11 14:20:17;;;;;;;38.08;22.10;;;;;;;;;;4976456;28;20039;-92
2022/12/11 14:22:44;;;;;;;36.13;18.67;;;;;;;;;;4987511;28;20037;-95
2022/12/11 14:25:21;;;;;;;37.70;18.98;;;;;;;;;;4980982;28;20092;-96
2022/12/11 14:27:52;;;;;;;42.50;22.85;;;;;;;;;;4964066;28;20024;-95
2022/12/11 14:30:26;;;;;;;35.25;20.80;;;;;;;;;;4982632;28;20026;-93
2022/12/11 14:32:54;;;;;;;24.90;14.10;;;;;;;;;;4982297;28;20022;-96
2022/12/11 14:35:32;;;;;;;21.38;12.50;;;;;;;;;;4982888;28;20077;-96
2022/12/11 14:38:02;;;;;;;24.50;14.38;;;;;;;;;;4986853;28;20031;-96
2022/12/11 14:40:32;;;;;;;27.17;16.10;;;;;;;;;;4986044;28;20421;-93
2022/12/11 14:42:59;;;;;;;28.35;15.32;;;;;;;;;;4978767;28;20075;-96
2022/12/11 14:45:28;;;;;;;31.45;17.90;;;;;;;;;;4980946;28;20043;-95
2022/12/11 14:47:54;;;;;;;28.58;14.82;;;;;;;;;;4980619;28;20043;-96
2022/12/11 14:56:29;;;;;;;32.67;17.00;;;;;;;;;;4967533;28;20038;-85
2022/12/11 14:59:18;;;;;;;24.00;13.75;;;;;;;;;;4961483;28;20024;-85
2022/12/11 15:01:44;;;;;;;27.52;15.40;;;;;;;;;;4965182;28;20038;-86
2022/12/11 15:04:13;;;;;;;26.67;14.25;;;;;;;;;;4979293;28;20027;-85
2022/12/11 15:06:43;;;;;;;25.30;14.60;;;;;;;;;;4971018;28;20106;-85
2022/12/11 15:09:22;;;;;;;32.00;16.45;;;;;;;;;;4967798;28;20027;-85
2022/12/11 15:11:49;;;;;;;30.42;15.90;;;;;;;;;;4979567;28;20027;-85
2022/12/11 15:14:17;;;;;;;32.78;17.65;;;;;;;;;;4964480;28;20070;-85
2022/12/11 15:16:43;;;;;;;30.77;15.57;;;;;;;;;;4973545;28;20054;-87
2022/12/11 15:19:25;;;;;;;23.05;13.40;;;;;;;;;;4972787;28;20023;-85
2022/12/11 15:21:51;;;;;;;23.20;13.35;;;;;;;;;;4960744;28;20027;-86
2022/12/11 15:24:25;;;;;;;19.05;11.23;;;;;;;;;;4959769;29;20326;-86
2022/12/11 15:26:54;;;;;;;17.05;11.52;;;;;;;;;;4959723;28;20063;-86
2022/12/11 15:29:25;;;;;;;24.73;14.93;;;;;;;;;;4970607;28;20031;-86
2022/12/11 15:32:02;;;;;;;22.83;13.32;;;;;;;;;;4976547;28;20046;-86
2022/12/11 15:34:32;;;;;;;23.45;12.82;;;;;;;;;;4964175;28;20334;-85
2022/12/11 15:36:58;;;;;;;18.55;11.70;;;;;;;;;;4966960;28;20041;-85
2022/12/11 15:39:24;;;;;;;16.85;10.68;;;;;;;;;;4965822;28;20015;-85
2022/12/11 15:41:50;;;;;;;18.73;11.13;;;;;;;;;;4970840;28;20117;-85
2022/12/11 15:44:19;;;;;;;17.60;10.05;;;;;;;;;;4962890;28;20031;-83
2022/12/11 15:46:45;;;;;;;17.92;9.93;;;;;;;;;;4962105;28;20034;-84